Time;durP1;ratioP1;P1;durP2;ratioP2;P2;SDS_P1;SDS_P2;PMS_P1;PMS_P2;Temp;Humidity;BMP_temperature;BMP_pressure;BME280_temperature;BME280_humidity;BME280_pressure;Samples;Min_cycle;Max_cycle;Signal;HPM_P1;HPM_P2
2024/01/06 00:01:13;;;;;;;36.42;24.80;;;;;;;6.19;100.00;100165.44;5077624;28;20036;-70
2024/01/06 00:03:40;;;;;;;36.28;24.23;;;;;;;6.18;100.00;100160.25;5082354;28;20059;-70
2024/01/06 00:06:11;;;;;;;34.85;24.60;;;;;;;6.19;100.00;100162.00;5065592;28;20036;-70
2024/01/06 00:08:38;;;;;;;42.20;25.05;;;;;;;6.19;100.00;100173.31;5067119;28;20044;-71
2024/01/06 00:11:06;;;;;;;37.88;25.15;;;;;;;6.21;100.00;100176.75;5072925;28;20049;-72
2024/01/06 00:13:33;;;;;;;39.35;26.25;;;;;;;6.20;100.00;100182.88;5085718;28;20052;-72
2024/01/06 00:16:00;;;;;;;38.72;26.15;;;;;;;6.23;100.00;100181.94;5081295;28;20047;-72
2024/01/06 00:18:27;;;;;;;35.90;23.73;;;;;;;6.25;100.00;100184.53;5084880;28;20044;-71
2024/01/06 00:20:56;;;;;;;34.22;22.88;;;;;;;6.25;100.00;100185.41;5078319;28;20128;-71
2024/01/06 00:23:23;;;;;;;31.10;20.52;;;;;;;6.25;100.00;100190.63;5080691;28;20506;-71
2024/01/06 00:25:50;;;;;;;28.85;18.45;;;;;;;6.22;100.00;100186.34;5072619;28;20044;-70
2024/01/06 00:28:17;;;;;;;30.67;19.75;;;;;;;6.22;100.00;100193.31;5078464;28;20071;-71
2024/01/06 00:30:45;;;;;;;28.40;18.80;;;;;;;6.21;100.00;100186.34;5086310;28;20036;-71
2024/01/06 00:33:12;;;;;;;28.50;17.88;;;;;;;6.19;100.00;100191.63;5089049;28;20421;-71
2024/01/06 00:35:40;;;;;;;26.85;17.80;;;;;;;6.19;100.00;100196.00;5088918;28;20042;-71
2024/01/06 00:38:07;;;;;;;28.33;18.60;;;;;;;6.16;100.00;100199.53;5082671;28;20044;-71
2024/01/06 00:40:35;;;;;;;23.95;16.38;;;;;;;6.15;100.00;100200.47;5095846;28;20121;-71
2024/01/06 00:43:02;;;;;;;26.77;15.93;;;;;;;6.13;100.00;100202.25;5087839;28;20056;-71
2024/01/06 00:45:30;;;;;;;23.20;16.58;;;;;;;6.12;100.00;100205.75;5075587;28;20031;-70
2024/01/06 00:47:57;;;;;;;23.45;15.82;;;;;;;6.13;100.00;100202.25;5084626;28;20115;-70
2024/01/06 00:50:25;;;;;;;24.02;16.52;;;;;;;6.10;100.00;100212.78;5073018;28;20041;-70
2024/01/06 00:52:52;;;;;;;25.52;15.63;;;;;;;6.09;100.00;100204.97;5077074;28;20061;-70
2024/01/06 00:55:20;;;;;;;22.95;15.38;;;;;;;6.05;100.00;100207.63;5086422;28;20064;-72
2024/01/06 00:57:48;;;;;;;22.95;14.98;;;;;;;6.04;100.00;100211.16;5083103;28;20090;-70
2024/01/06 01:00:15;;;;;;;22.02;15.25;;;;;;;6.03;100.00;100213.81;5080338;28;20098;-70
2024/01/06 01:02:42;;;;;;;23.10;14.70;;;;;;;5.99;100.00;100212.09;5089108;28;20044;-72
2024/01/06 01:05:09;;;;;;;19.83;14.50;;;;;;;5.95;100.00;100220.94;5083534;28;20062;-72
2024/01/06 01:07:37;;;;;;;22.67;15.45;;;;;;;5.88;100.00;100223.66;5084801;28;20048;-73
2024/01/06 01:10:05;;;;;;;22.08;14.68;;;;;;;5.82;100.00;100231.66;5071380;28;20051;-73
2024/01/06 01:12:32;;;;;;;20.80;14.27;;;;;;;5.75;100.00;100228.28;5069219;28;20127;-71
2024/01/06 01:14:59;;;;;;;19.02;13.73;;;;;;;5.70;100.00;100234.50;5098996;28;20062;-73
2024/01/06 01:17:27;;;;;;;20.92;14.23;;;;;;;5.64;100.00;100240.72;5088605;28;20074;-73
2024/01/06 01:19:54;;;;;;;19.35;13.77;;;;;;;5.60;100.00;100242.53;5076817;28;20043;-73
2024/01/06 01:22:21;;;;;;;20.00;13.98;;;;;;;5.55;100.00;100248.75;5088726;28;20526;-73
2024/01/06 01:24:48;;;;;;;19.45;13.35;;;;;;;5.50;100.00;100253.19;5089111;28;20499;-71
2024/01/06 01:27:15;;;;;;;18.20;13.27;;;;;;;5.46;100.00;100259.38;5088999;28;20044;-74
2024/01/06 01:29:42;;;;;;;19.52;14.15;;;;;;;5.40;100.00;100250.72;5084083;28;20040;-72
2024/01/06 01:32:10;;;;;;;18.75;12.88;;;;;;;5.38;100.00;100263.00;5087876;28;20527;-73
2024/01/06 01:34:37;;;;;;;17.92;12.85;;;;;;;5.32;100.00;100270.94;5087207;28;20039;-72
2024/01/06 01:37:04;;;;;;;20.10;13.82;;;;;;;5.27;100.00;100268.41;5081897;28;20053;-72
2024/01/06 01:39:31;;;;;;;19.75;14.35;;;;;;;5.24;100.00;100278.03;5071632;28;20504;-73
2024/01/06 01:41:58;;;;;;;18.88;13.90;;;;;;;5.19;100.00;100266.81;5068629;28;20595;-72
2024/01/06 01:44:25;;;;;;;18.73;14.15;;;;;;;5.18;100.00;100275.56;5097236;28;20040;-73
2024/01/06 01:46:53;;;;;;;17.23;13.25;;;;;;;5.15;100.00;100273.81;5075822;28;20045;-72
2024/01/06 01:49:20;;;;;;;19.73;13.48;;;;;;;5.11;100.00;100283.47;5078600;28;20671;-71
2024/01/06 01:51:50;;;;;;;19.55;13.20;;;;;;;5.08;100.00;100280.94;5083773;28;20051;-72
2024/01/06 01:54:17;;;;;;;19.65;13.70;;;;;;;5.06;100.00;100290.53;5103234;28;20048;-72
2024/01/06 01:56:45;;;;;;;19.80;13.55;;;;;;;5.06;100.00;100292.28;5082443;28;20040;-72
2024/01/06 01:59:13;;;;;;;19.63;13.57;;;;;;;5.05;100.00;100293.16;5083512;28;20056;-71
2024/01/06 02:01:41;;;;;;;19.00;12.68;;;;;;;5.02;100.00;100293.22;5088781;28;20101;-72
2024/01/06 02:04:09;;;;;;;17.85;12.48;;;;;;;5.00;100.00;100285.41;5064731;28;20491;-71
2024/01/06 02:06:36;;;;;;;17.88;11.80;;;;;;;4.99;100.00;100288.88;5082523;28;20071;-72
2024/01/06 02:09:03;;;;;;;15.43;11.18;;;;;;;5.01;100.00;100292.34;5073704;28;20047;-72
2024/01/06 02:11:31;;;;;;;18.27;11.35;;;;;;;4.99;100.00;100304.56;5098697;28;20491;-72
2024/01/06 02:13:58;;;;;;;16.13;11.25;;;;;;;4.99;100.00;100301.94;5086840;28;20040;-71
2024/01/06 02:16:25;;;;;;;16.65;11.63;;;;;;;4.97;100.00;100299.38;5074543;28;20044;-71
2024/01/06 02:18:52;;;;;;;15.98;10.90;;;;;;;4.97;100.00;100312.44;5082954;28;20039;-71
2024/01/06 02:21:23;;;;;;;14.25;10.27;;;;;;;4.96;100.00;100309.88;5068182;28;20066;-72
2024/01/06 02:23:50;;;;;;;14.30;10.18;;;;;;;4.97;100.00;100316.81;5077752;28;20046;-72
2024/01/06 02:26:19;;;;;;;15.00;10.10;;;;;;;4.95;100.00;100321.19;5105711;28;20523;-71
2024/01/06 02:28:47;;;;;;;14.95;10.43;;;;;;;4.94;100.00;100329.91;5084790;28;20047;-71
2024/01/06 02:31:15;;;;;;;13.63;10.63;;;;;;;4.92;100.00;100332.56;5075763;28;20500;-71
2024/01/06 02:33:42;;;;;;;14.10;9.75;;;;;;;4.91;100.00;100336.06;5069915;28;20066;-71
2024/01/06 02:36:09;;;;;;;12.68;9.48;;;;;;;4.91;100.00;100336.06;5070299;28;20052;-71
2024/01/06 02:38:37;;;;;;;12.68;9.70;;;;;;;4.92;100.00;100352.59;5071687;28;20071;-71
2024/01/06 02:41:04;;;;;;;13.80;9.73;;;;;;;4.91;100.00;100351.72;5087659;28;20055;-71
2024/01/06 02:43:31;;;;;;;12.48;8.98;;;;;;;4.93;100.00;100362.16;5096384;28;20063;-71
2024/01/06 02:45:58;;;;;;;12.68;9.93;;;;;;;4.91;100.00;100371.75;5081963;28;20032;-72
2024/01/06 02:48:26;;;;;;;12.45;9.23;;;;;;;4.87;100.00;100370.94;5075120;28;20040;-71
2024/01/06 02:50:53;;;;;;;10.82;8.38;;;;;;;4.87;100.00;100372.69;5086665;28;20048;-71
2024/01/06 02:53:20;;;;;;;12.20;9.20;;;;;;;4.86;100.00;100379.66;5082132;28;20535;-73
2024/01/06 02:55:47;;;;;;;11.55;9.20;;;;;;;4.86;100.00;100382.25;5076307;28;20539;-72
2024/01/06 02:58:14;;;;;;;11.50;9.20;;;;;;;4.86;100.00;100384.03;5080950;28;20063;-71
2024/01/06 03:00:41;;;;;;;11.80;9.13;;;;;;;4.85;100.00;100387.53;5086961;28;20044;-72
2024/01/06 03:03:09;;;;;;;12.85;8.90;;;;;;;4.83;100.00;100392.78;5075601;28;20110;-72
2024/01/06 03:05:36;;;;;;;17.10;9.75;;;;;;;4.80;100.00;100385.81;5086529;28;20032;-72
2024/01/06 03:08:05;;;;;;;15.70;9.18;;;;;;;4.82;100.00;100391.91;5068480;28;20044;-72
2024/01/06 03:10:32;;;;;;;13.48;9.80;;;;;;;4.81;100.00;100394.53;5074126;28;20067;-73
2024/01/06 03:12:59;;;;;;;12.40;9.40;;;;;;;4.80;100.00;100398.88;5098026;28;20036;-72
2024/01/06 03:15:26;;;;;;;13.73;8.85;;;;;;;4.79;100.00;100393.69;5088122;28;20052;-72
2024/01/06 03:17:53;;;;;;;12.35;9.27;;;;;;;4.78;100.00;100390.19;5067934;28;20500;-72
2024/01/06 03:20:21;;;;;;;13.90;9.30;;;;;;;4.80;100.00;100400.66;5069875;28;20051;-72
2024/01/06 03:22:49;;;;;;;12.68;9.30;;;;;;;4.79;100.00;100401.53;5067348;28;20040;-72
2024/01/06 03:25:16;;;;;;;14.38;10.02;;;;;;;4.81;100.00;100399.75;5050760;28;20044;-71
2024/01/06 03:27:43;;;;;;;13.38;9.13;;;;;;;4.80;100.00;100400.66;5083569;28;20044;-71
2024/01/06 03:30:12;;;;;;;16.15;10.10;;;;;;;4.77;100.00;100401.56;5098105;28;20105;-71
2024/01/06 03:32:39;;;;;;;14.18;10.00;;;;;;;4.79;100.00;100410.22;5083142;28;20153;-71
2024/01/06 03:35:06;;;;;;;16.23;10.48;;;;;;;4.76;100.00;100414.63;5072476;28;20527;-71
2024/01/06 03:37:34;;;;;;;13.52;9.73;;;;;;;4.74;100.00;100405.94;5067768;28;20047;-71
2024/01/06 03:40:01;;;;;;;18.45;10.57;;;;;;;4.75;100.00;100410.28;5070085;28;20048;-71
2024/01/06 03:42:28;;;;;;;13.57;10.48;;;;;;;4.72;100.00;100419.03;5083708;28;20040;-72
2024/01/06 03:44:55;;;;;;;14.60;10.40;;;;;;;4.71;100.00;100421.66;5085219;28;20072;-71
2024/01/06 03:47:22;;;;;;;15.45;11.40;;;;;;;4.70;100.00;100420.78;5067122;28;20135;-71
2024/01/06 03:49:49;;;;;;;15.57;11.38;;;;;;;4.66;100.00;100422.56;5073717;28;20059;-71
2024/01/06 03:52:17;;;;;;;17.30;11.60;;;;;;;4.63;100.00;100425.22;5073100;28;20047;-71
2024/01/06 03:54:44;;;;;;;16.92;11.07;;;;;;;4.63;100.00;100427.81;5074361;28;20051;-70
2024/01/06 03:57:11;;;;;;;15.73;10.95;;;;;;;4.61;100.00;100436.56;5093925;28;20055;-71
2024/01/06 03:59:38;;;;;;;18.10;11.23;;;;;;;4.61;100.00;100440.06;5086395;28;20127;-71
2024/01/06 04:02:05;;;;;;;16.15;11.10;;;;;;;4.61;100.00;100441.78;5088173;28;20097;-71
2024/01/06 04:04:32;;;;;;;18.17;12.15;;;;;;;4.60;100.00;100442.66;5083441;28;20048;-71
2024/01/06 04:07:01;;;;;;;17.38;12.15;;;;;;;4.58;100.00;100450.53;5089623;28;20407;-71
2024/01/06 04:09:28;;;;;;;17.20;11.88;;;;;;;4.54;100.00;100448.81;5091993;28;20036;-71
2024/01/06 04:11:55;;;;;;;17.73;11.35;;;;;;;4.53;100.00;100451.47;5072321;28;20033;-71
2024/01/06 04:14:23;;;;;;;19.98;13.07;;;;;;;4.52;100.00;100458.44;5082382;28;20040;-71
2024/01/06 04:16:51;;;;;;;22.90;13.95;;;;;;;4.51;100.00;100460.16;5086733;28;20446;-71
2024/01/06 04:19:20;;;;;;;18.80;13.20;;;;;;;4.50;100.00;100461.06;5089860;28;20051;-71
2024/01/06 04:21:48;;;;;;;27.73;14.82;;;;;;;4.50;100.00;100466.28;5087421;28;20074;-71
2024/01/06 04:24:15;;;;;;;23.92;15.32;;;;;;;4.50;100.00;100465.41;5103159;28;20044;-71
2024/01/06 04:26:44;;;;;;;29.20;14.70;;;;;;;4.49;100.00;100461.94;5076612;28;20044;-71
2024/01/06 04:29:12;;;;;;;26.00;15.60;;;;;;;4.47;100.00;100468.94;5082554;28;20092;-71
2024/01/06 04:31:41;;;;;;;25.50;14.13;;;;;;;4.48;100.00;100467.19;5099474;28;20123;-71
2024/01/06 04:34:08;;;;;;;26.30;14.82;;;;;;;4.46;100.00;100467.22;5107608;28;20064;-71
2024/01/06 04:36:36;;;;;;;25.95;14.38;;;;;;;4.45;100.00;100475.91;5089867;28;20040;-71
2024/01/06 04:39:03;;;;;;;24.85;14.20;;;;;;;4.44;100.00;100481.13;5083743;28;20035;-71
2024/01/06 04:41:30;;;;;;;27.58;14.57;;;;;;;4.42;100.00;100481.16;5087520;28;20036;-71
2024/01/06 04:43:58;;;;;;;28.17;14.57;;;;;;;4.41;100.00;100478.56;5082323;28;20052;-71
2024/01/06 04:46:25;;;;;;;18.40;13.30;;;;;;;4.42;100.00;100477.69;5087371;28;20437;-70
2024/01/06 04:48:52;;;;;;;22.50;13.15;;;;;;;4.39;100.00;100483.78;5077887;28;20683;-70
2024/01/06 04:51:19;;;;;;;22.92;12.45;;;;;;;4.40;100.00;100485.53;5074757;28;20044;-70
2024/01/06 04:53:47;;;;;;;22.08;13.30;;;;;;;4.41;100.00;100497.69;5096431;28;20098;-70
2024/01/06 04:56:14;;;;;;;20.15;12.65;;;;;;;4.40;100.00;100498.56;5083572;28;20048;-70
2024/01/06 04:58:41;;;;;;;25.33;12.55;;;;;;;4.40;100.00;100495.13;5090627;28;20040;-70
2024/01/06 05:01:08;;;;;;;26.00;12.43;;;;;;;4.40;100.00;100500.34;5073504;28;20093;-71
2024/01/06 05:03:35;;;;;;;23.55;12.98;;;;;;;4.39;100.00;100501.22;5084282;28;20044;-70
2024/01/06 05:06:03;;;;;;;32.72;12.85;;;;;;;4.38;100.00;100510.78;5082098;28;20454;-71
2024/01/06 05:08:30;;;;;;;21.17;13.65;;;;;;;4.40;100.00;100508.16;5089126;28;20522;-71
2024/01/06 05:10:59;;;;;;;21.50;13.05;;;;;;;4.38;100.00;100516.00;5075927;28;20076;-70
2024/01/06 05:13:26;;;;;;;21.25;13.57;;;;;;;4.39;100.00;100509.03;5079940;28;20068;-70
2024/01/06 05:15:53;;;;;;;31.33;14.63;;;;;;;4.42;100.00;100512.47;5077510;28;20531;-70
2024/01/06 05:18:20;;;;;;;21.85;11.05;;;;;;;4.42;100.00;100511.63;5088513;28;20070;-71
2024/01/06 05:20:48;;;;;;;23.80;11.43;;;;;;;4.43;100.00;100519.44;5081518;28;20044;-70
2024/01/06 05:23:15;;;;;;;16.95;9.25;;;;;;;4.42;100.00;100515.09;5076222;28;20047;-70
2024/01/06 05:25:44;;;;;;;24.05;10.23;;;;;;;4.40;100.00;100514.25;5077854;28;20128;-71
2024/01/06 05:28:12;;;;;;;16.45;10.18;;;;;;;4.40;100.00;100518.59;5084695;28;20511;-70
2024/01/06 05:30:39;;;;;;;15.30;9.68;;;;;;;4.35;100.00;100513.44;5079100;28;20555;-71
2024/01/06 05:33:10;;;;;;;15.13;10.43;;;;;;;4.34;100.00;100524.75;5076801;28;20048;-70
2024/01/06 05:35:43;;;;;;;16.70;11.52;;;;;;;4.31;100.00;100528.25;5073735;28;20106;-70
2024/01/06 05:38:11;;;;;;;17.83;11.98;;;;;;;4.30;100.00;100534.34;5079847;28;20044;-70
2024/01/06 05:40:38;;;;;;;17.48;12.32;;;;;;;4.29;100.00;100537.84;5077731;28;20052;-69
2024/01/06 05:43:05;;;;;;;23.98;13.05;;;;;;;4.29;100.00;100524.78;5078571;28;20117;-69
2024/01/06 05:45:33;;;;;;;16.02;12.23;;;;;;;4.30;100.00;100536.97;5078899;28;20089;-67
2024/01/06 05:48:00;;;;;;;19.25;11.95;;;;;;;4.31;100.00;100537.81;5076273;28;20079;-67
2024/01/06 05:50:28;;;;;;;18.00;12.38;;;;;;;4.31;100.00;100541.31;5074255;28;20493;-70
2024/01/06 05:52:58;;;;;;;18.33;12.13;;;;;;;4.29;100.00;100542.19;5078035;28;20076;-69
2024/01/06 05:55:25;;;;;;;18.65;13.18;;;;;;;4.29;100.00;100552.63;5076157;28;20128;-71
2024/01/06 05:57:52;;;;;;;18.45;12.65;;;;;;;4.29;100.00;100550.00;5063288;28;20043;-70
2024/01/06 06:00:20;;;;;;;17.70;12.18;;;;;;;4.26;100.00;100556.13;5077229;28;20584;-70
2024/01/06 06:02:47;;;;;;;18.48;13.52;;;;;;;4.27;100.00;100560.47;5078220;28;20040;-70
2024/01/06 06:05:21;;;;;;;18.77;12.60;;;;;;;4.27;100.00;100559.63;5077989;28;20070;-70
2024/01/06 06:07:48;;;;;;;20.42;13.45;;;;;;;4.22;100.00;100564.00;5078682;28;20044;-69
2024/01/06 06:10:18;;;;;;;52.88;26.52;;;;;;;4.21;100.00;100563.16;5078023;28;20491;-70
2024/01/06 06:12:45;;;;;;;26.58;15.25;;;;;;;4.21;100.00;100578.81;5081487;28;20047;-70
2024/01/06 06:15:17;;;;;;;22.38;13.57;;;;;;;4.24;100.00;100580.53;5086818;28;20105;-68
2024/01/06 06:17:45;;;;;;;22.77;14.20;;;;;;;4.24;100.00;100585.72;5079849;28;20032;-70
2024/01/06 06:20:15;;;;;;;27.95;16.58;;;;;;;4.24;100.00;100576.16;5085487;28;20059;-70
2024/01/06 06:22:42;;;;;;;23.85;15.93;;;;;;;4.24;100.00;100589.19;5075886;28;20040;-69
2024/01/06 06:25:10;;;;;;;25.83;17.35;;;;;;;4.22;100.00;100583.16;5076676;28;20085;-68
2024/01/06 06:27:37;;;;;;;24.23;16.25;;;;;;;4.19;100.00;100591.00;5092736;28;20057;-69
2024/01/06 06:30:08;;;;;;;23.80;16.35;;;;;;;4.19;100.00;100591.84;5092961;28;20062;-70
2024/01/06 06:32:35;;;;;;;21.50;15.48;;;;;;;4.18;100.00;100597.09;5077942;28;20060;-70
2024/01/06 06:35:03;;;;;;;20.70;14.18;;;;;;;4.16;100.00;100607.53;5077523;28;20098;-70
2024/01/06 06:37:30;;;;;;;21.83;15.63;;;;;;;4.15;100.00;100613.63;5077613;28;20093;-69
2024/01/06 06:39:57;;;;;;;25.02;16.80;;;;;;;4.11;100.00;100614.53;5077876;28;20097;-66
2024/01/06 06:42:24;;;;;;;22.95;16.20;;;;;;;4.06;100.00;100626.75;5075005;28;20067;-70
2024/01/06 06:44:51;;;;;;;25.13;16.15;;;;;;;4.03;100.00;100631.97;5076731;28;20040;-70
2024/01/06 06:47:19;;;;;;;24.38;16.08;;;;;;;3.96;100.00;100631.16;5077506;28;20127;-70
2024/01/06 06:49:46;;;;;;;23.13;15.45;;;;;;;3.89;100.00;100630.31;5079387;28;20036;-69
2024/01/06 06:52:15;;;;;;;23.38;15.93;;;;;;;3.86;100.00;100637.28;5095216;28;20491;-70
2024/01/06 06:54:43;;;;;;;22.13;14.98;;;;;;;3.83;100.00;100647.72;5072038;28;20493;-69
2024/01/06 06:57:10;;;;;;;22.42;14.82;;;;;;;3.80;100.00;100655.59;5078808;28;20126;-70
2024/01/06 06:59:40;;;;;;;23.98;15.85;;;;;;;3.78;100.00;100658.19;5079044;28;20051;-69
2024/01/06 07:02:07;;;;;;;21.88;14.23;;;;;;;3.78;100.00;100662.56;5077811;28;20231;-69
2024/01/06 07:04:34;;;;;;;21.88;14.60;;;;;;;3.73;100.00;100663.44;5076104;28;20645;-69
2024/01/06 07:07:02;;;;;;;20.85;14.63;;;;;;;3.69;100.00;100672.16;5074191;28;20048;-69
2024/01/06 07:09:29;;;;;;;21.92;14.45;;;;;;;3.65;100.00;100670.44;5088786;28;20048;-76
2024/01/06 07:12:00;;;;;;;19.98;14.32;;;;;;;3.63;100.00;100664.34;5078935;28;20957;-70
2024/01/06 07:14:27;;;;;;;22.25;15.18;;;;;;;3.61;100.00;100665.25;5076700;28;20048;-70
2024/01/06 07:16:54;;;;;;;17.88;12.27;;;;;;;3.62;100.00;100682.63;5071630;28;20125;-70
2024/01/06 07:19:21;;;;;;;18.50;12.07;;;;;;;3.61;100.00;100688.69;5070583;28;20044;-67
2024/01/06 07:21:48;;;;;;;23.15;12.02;;;;;;;3.59;100.00;100688.72;5083168;28;20742;-69
2024/01/06 07:24:16;;;;;;;18.25;12.93;;;;;;;3.61;100.00;100699.13;5077036;28;20032;-69
2024/01/06 07:26:43;;;;;;;19.50;13.48;;;;;;;3.60;100.00;100703.50;5087237;28;20028;-71
2024/01/06 07:29:11;;;;;;;19.80;13.82;;;;;;;3.56;100.00;100709.56;5087312;28;20048;-70
2024/01/06 07:31:38;;;;;;;22.17;13.73;;;;;;;3.52;100.00;100700.03;5084135;28;20032;-74
2024/01/06 07:34:06;;;;;;;22.05;14.40;;;;;;;3.48;100.00;100714.81;5084250;28;20504;-69
2024/01/06 07:36:33;;;;;;;21.88;15.10;;;;;;;3.41;100.00;100721.78;5080014;28;20040;-69
2024/01/06 07:39:03;;;;;;;20.98;14.65;;;;;;;3.40;100.00;100717.47;5070727;28;20052;-70
2024/01/06 07:41:32;;;;;;;25.35;16.08;;;;;;;3.39;100.00;100728.75;5074641;28;20120;-68
2024/01/06 07:44:00;;;;;;;22.52;16.60;;;;;;;3.38;100.00;100721.78;5075341;28;20558;-69
2024/01/06 07:46:28;;;;;;;22.70;15.55;;;;;;;3.36;100.00;100731.34;5075034;28;20036;-70
2024/01/06 07:48:55;;;;;;;25.15;16.60;;;;;;;3.33;100.00;100720.94;5073275;28;20045;-69
2024/01/06 07:51:23;;;;;;;28.05;17.45;;;;;;;3.29;100.00;100733.97;5100780;28;20757;-69
2024/01/06 07:53:50;;;;;;;27.55;18.48;;;;;;;3.25;100.00;100730.50;5082423;28;20047;-69
2024/01/06 07:56:18;;;;;;;25.00;17.25;;;;;;;3.21;100.00;100744.41;5085945;28;20040;-69
2024/01/06 07:58:45;;;;;;;24.52;17.13;;;;;;;3.19;100.00;100751.38;5075853;28;20094;-69
2024/01/06 08:01:13;;;;;;;30.23;17.17;;;;;;;3.17;100.00;100756.56;5085351;28;20052;-69
2024/01/06 08:03:40;;;;;;;23.70;17.02;;;;;;;3.17;100.00;100758.31;5079383;28;20040;-69
2024/01/06 08:06:07;;;;;;;22.58;14.98;;;;;;;3.18;100.00;100758.31;5082328;28;20123;-68
2024/01/06 08:08:35;;;;;;;22.75;15.32;;;;;;;3.15;100.00;100767.88;5077150;28;20048;-69
2024/01/06 08:11:02;;;;;;;20.80;15.43;;;;;;;3.13;100.00;100774.81;5080066;28;20110;-70
2024/01/06 08:13:30;;;;;;;19.73;14.27;;;;;;;3.12;100.00;100771.34;5079128;28;20075;-70
2024/01/06 08:15:57;;;;;;;22.70;14.63;;;;;;;3.13;100.00;100786.09;5080412;28;20048;-70
2024/01/06 08:18:24;;;;;;;20.75;13.85;;;;;;;3.09;100.00;100782.63;5076683;28;20063;-71
2024/01/06 08:20:51;;;;;;;22.33;15.07;;;;;;;3.04;100.00;100791.31;5078539;28;20055;-70
2024/01/06 08:23:20;;;;;;;22.25;15.27;;;;;;;2.97;100.00;100785.25;5080335;28;20036;-70
2024/01/06 08:25:48;;;;;;;18.80;13.63;;;;;;;2.99;100.00;100804.34;5075694;28;20101;-70
2024/01/06 08:28:16;;;;;;;20.08;13.88;;;;;;;2.99;100.00;100801.75;5074246;28;20048;-70
2024/01/06 08:30:43;;;;;;;18.83;13.07;;;;;;;3.01;100.00;100802.59;5093704;28;20043;-70
2024/01/06 08:33:10;;;;;;;21.05;14.05;;;;;;;3.02;100.00;100812.13;5082950;28;20052;-70
2024/01/06 08:35:40;;;;;;;19.35;14.05;;;;;;;2.99;100.00;100814.75;5072981;28;20497;-70
2024/01/06 08:38:07;;;;;;;20.60;15.05;;;;;;;2.95;100.00;100813.88;5081780;28;20067;-70
2024/01/06 08:40:35;;;;;;;16.33;7.57;;;;;;;2.97;100.00;100828.63;5083313;28;20126;-70
2024/01/06 08:43:03;;;;;;;16.75;8.20;;;;;;;2.99;100.00;100829.50;5089683;28;20435;-70
2024/01/06 08:45:30;;;;;;;21.90;15.60;;;;;;;3.04;100.00;100838.22;5085953;28;20040;-70
2024/01/06 08:47:57;;;;;;;17.25;13.25;;;;;;;3.02;100.00;100840.78;5088021;28;20044;-70
2024/01/06 08:50:25;;;;;;;21.58;15.63;;;;;;;2.95;100.00;100849.47;5072886;28;20064;-70
2024/01/06 08:52:52;;;;;;;15.43;8.05;;;;;;;2.95;100.00;100842.50;5072311;28;20040;-70
2024/01/06 08:55:19;;;;;;;20.95;15.20;;;;;;;2.97;100.00;100847.75;5056321;28;20067;-70
2024/01/06 08:57:46;;;;;;;21.08;15.35;;;;;;;3.02;100.00;100850.34;5074587;28;20119;-70
2024/01/06 09:00:14;;;;;;;15.25;7.07;;;;;;;3.03;100.00;100850.34;5071936;28;20132;-70
2024/01/06 09:02:41;;;;;;;20.65;14.65;;;;;;;3.05;100.00;100852.97;5081986;28;20044;-70
2024/01/06 09:05:08;;;;;;;18.73;14.73;;;;;;;3.04;100.00;100864.25;5084544;28;20059;-70
2024/01/06 09:07:36;;;;;;;17.65;14.38;;;;;;;3.06;100.00;100866.00;5078249;28;20047;-70
2024/01/06 09:10:03;;;;;;;19.52;14.52;;;;;;;3.07;100.00;100870.34;5070199;28;20473;-70
2024/01/06 09:12:30;;;;;;;19.85;14.80;;;;;;;3.04;100.00;100880.75;5075358;28;20052;-70
2024/01/06 09:14:57;;;;;;;18.52;14.38;;;;;;;3.07;100.00;100887.69;5077685;28;20041;-70
2024/01/06 09:17:25;;;;;;;20.20;15.20;;;;;;;3.04;100.00;100872.94;5099660;28;20041;-70
2024/01/06 09:19:53;;;;;;;21.75;16.13;;;;;;;3.03;100.00;100886.81;5070147;28;20124;-70
2024/01/06 09:22:21;;;;;;;18.58;14.55;;;;;;;3.05;100.00;100889.44;5106291;28;20119;-70
2024/01/06 09:24:48;;;;;;;18.77;14.10;;;;;;;3.06;100.00;100894.63;5072814;28;20119;-70
2024/01/06 09:27:15;;;;;;;19.42;14.48;;;;;;;3.07;100.00;100896.38;5069586;28;20045;-70
2024/01/06 09:29:43;;;;;;;20.40;15.02;;;;;;;3.05;100.00;100900.72;5069286;28;20044;-70
2024/01/06 09:32:10;;;;;;;19.17;15.05;;;;;;;3.04;100.00;100906.78;5082876;28;20049;-70
2024/01/06 09:34:37;;;;;;;22.80;15.35;;;;;;;3.00;100.00;100912.00;5080304;28;20044;-70
2024/01/06 09:37:06;;;;;;;20.75;14.38;;;;;;;2.96;100.00;100913.72;5085975;28;20055;-69
2024/01/06 09:39:33;;;;;;;21.05;14.93;;;;;;;2.92;100.00;100912.84;5086962;28;20507;-69
2024/01/06 09:42:01;;;;;;;20.30;15.05;;;;;;;2.90;100.00;100908.50;5104412;28;20044;-70
2024/01/06 09:44:28;;;;;;;22.35;16.05;;;;;;;2.92;100.00;100919.78;5103569;28;20075;-69
2024/01/06 09:47:00;;;;;;;20.20;15.18;;;;;;;2.93;100.00;100926.72;5089373;28;20773;-69
2024/01/06 09:49:30;;;;;;;19.33;14.50;;;;;;;2.96;100.00;100926.75;5079472;28;20051;-69
2024/01/06 09:52:04;;;;;;;19.90;14.85;;;;;;;2.98;100.00;100932.84;5079580;28;20048;-69
2024/01/06 09:54:38;;;;;;;18.00;14.50;;;;;;;3.01;100.00;100937.19;5087756;28;20153;-69
2024/01/06 09:57:06;;;;;;;20.52;14.93;;;;;;;3.02;100.00;100946.72;5072212;28;20036;-68
2024/01/06 09:59:36;;;;;;;19.83;14.82;;;;;;;3.03;100.00;100948.47;5069842;28;20801;-69
2024/01/06 10:02:04;;;;;;;18.77;14.05;;;;;;;3.03;100.00;100948.47;5071351;28;20492;-70
2024/01/06 10:04:32;;;;;;;19.92;14.00;;;;;;;3.00;100.00;100957.13;5071239;28;20504;-70
2024/01/06 10:07:00;;;;;;;19.83;14.27;;;;;;;2.99;100.00;100962.34;5068755;28;20066;-70
2024/01/06 10:09:28;;;;;;;19.38;14.32;;;;;;;2.92;100.00;100953.63;5086340;28;20040;-70
2024/01/06 10:11:57;;;;;;;20.52;14.48;;;;;;;2.92;100.00;100962.34;5097880;28;20090;-70
2024/01/06 10:14:24;;;;;;;19.40;13.85;;;;;;;2.92;100.00;100961.44;5069241;28;20048;-70
2024/01/06 10:16:52;;;;;;;18.17;7.18;;;;;;;2.92;100.00;100964.06;5067936;28;20040;-70
2024/01/06 10:19:20;;;;;;;16.33;12.73;;;;;;;2.91;100.00;100978.81;5072672;28;20078;-70
2024/01/06 10:21:49;;;;;;;19.50;13.55;;;;;;;2.85;100.00;100968.38;5088601;28;20454;-70
2024/01/06 10:24:19;;;;;;;16.33;7.85;;;;;;;2.87;100.00;100971.84;5074169;28;20048;-70
2024/01/06 10:26:46;;;;;;;19.98;13.98;;;;;;;2.87;100.00;100971.00;5086623;28;20078;-70
2024/01/06 10:29:14;;;;;;;20.17;14.23;;;;;;;2.86;100.00;100971.84;5067790;28;20064;-70
2024/01/06 10:31:41;;;;;;;21.23;14.30;;;;;;;2.89;100.00;100979.69;5071321;28;20040;-70
2024/01/06 10:34:08;;;;;;;21.45;14.45;;;;;;;2.87;100.00;100971.84;5087088;28;20055;-70
2024/01/06 10:36:36;;;;;;;21.60;14.77;;;;;;;2.87;100.00;100976.19;5087745;28;20040;-70
2024/01/06 10:39:04;;;;;;;22.80;15.60;;;;;;;2.89;100.00;100974.47;5089160;28;20044;-70
2024/01/06 10:41:32;;;;;;;21.77;14.93;;;;;;;2.92;100.00;100982.28;5069327;28;20996;-70
2024/01/06 10:44:01;;;;;;;20.90;14.10;;;;;;;2.92;100.00;100993.59;5087305;28;20501;-70
2024/01/06 10:46:31;;;;;;;22.08;14.98;;;;;;;2.91;100.00;100991.84;5088174;28;20040;-70
2024/01/06 10:49:00;;;;;;;14.07;7.65;;;;;;;2.86;100.00;100985.72;5080326;28;20063;-71
2024/01/06 10:51:30;;;;;;;22.67;15.40;;;;;;;2.80;100.00;100985.72;5076326;28;20048;-70
2024/01/06 10:54:00;;;;;;;22.45;14.80;;;;;;;2.73;100.00;100989.16;5072422;28;20557;-70
2024/01/06 10:56:30;;;;;;;23.67;15.13;;;;;;;2.68;100.00;100981.34;5067372;28;20044;-70
2024/01/06 10:59:01;;;;;;;26.95;17.52;;;;;;;2.64;100.00;100987.38;5081512;28;20056;-70
2024/01/06 11:01:29;;;;;;;19.10;9.32;;;;;;;2.66;100.00;100988.25;5088300;28;20127;-70
2024/01/06 11:03:59;;;;;;;24.80;16.50;;;;;;;2.67;100.00;100995.22;5077973;28;20044;-70
2024/01/06 11:06:28;;;;;;;27.15;17.75;;;;;;;2.74;100.00;100996.13;5078553;28;20040;-70
2024/01/06 11:09:11;;;;;;;25.48;17.98;;;;;;;2.74;100.00;100993.53;5081033;28;20046;-70
2024/01/06 11:11:39;;;;;;;24.95;17.17;;;;;;;2.76;100.00;101007.38;5068423;28;20500;-70